Time;durP1;ratioP1;P1;durP2;ratioP2;P2;SDS_P1;SDS_P2;PMS_P1;PMS_P2;Temp;Humidity;BMP_temperature;BMP_pressure;BME280_temperature;BME280_humidity;BME280_pressure;Samples;Min_cycle;Max_cycle;Signal;HPM_P1;HPM_P2
2022/12/07 00:01:46;;;;;;;1.30;1.08;;;2.00;1.00;;;;;;5084045;28;20426;-70
2022/12/07 00:04:17;;;;;;;1.35;1.25;;;2.00;1.00;;;;;;5078925;28;20435;-70
2022/12/07 00:06:46;;;;;;;3.35;1.33;;;2.00;1.00;;;;;;5087112;28;20421;-70
2022/12/07 00:09:16;;;;;;;1.33;1.23;;;2.00;26.50;;;;;;5076808;28;20419;-70
2022/12/07 00:11:44;;;;;;;1.42;1.33;;;2.00;13.80;;;;;;5089657;28;20426;-70
2022/12/07 00:14:14;;;;;;;1.57;1.20;;;2.00;48.10;;;;;;5085973;28;20431;-70
2022/12/07 00:16:42;;;;;;;2.30;0.70;;;2.00;99.90;;;;;;5081047;28;20513;-70
2022/12/07 00:19:11;;;;;;;1.60;1.50;;;2.00;99.90;;;;;;5083188;28;20804;-70
2022/12/07 00:21:38;;;;;;;2.30;1.15;;;2.00;99.90;;;;;;5086923;28;20426;-70
2022/12/07 00:24:06;;;;;;;0.98;0.88;;;1.90;99.90;;;;;;5089191;28;20425;-70
2022/12/07 00:26:38;;;;;;;1.15;1.05;;;1.90;99.90;;;;;;5080792;28;20421;-69
2022/12/07 00:29:15;;;;;;;1.60;1.42;;;1.90;99.90;;;;;;5073348;28;20495;-70
2022/12/07 00:31:42;;;;;;;1.33;1.23;;;1.90;99.90;;;;;;5088373;28;20422;-70
2022/12/07 00:34:13;;;;;;;1.33;1.23;;;1.90;99.90;;;;;;5084974;28;20441;-71
2022/12/07 00:36:40;;;;;;;1.02;1.02;;;1.90;99.90;;;;;;5081807;28;21179;-70
2022/12/07 00:39:07;;;;;;;1.63;1.23;;;1.90;99.90;;;;;;5086206;28;20464;-69
2022/12/07 00:41:37;;;;;;;2.78;1.45;;;1.90;99.90;;;;;;5081368;28;20434;-71
2022/12/07 00:44:03;;;;;;;1.98;1.20;;;2.00;99.90;;;;;;5081895;28;20426;-70
2022/12/07 00:46:31;;;;;;;1.80;0.90;;;1.90;99.90;;;;;;5078585;28;20824;-69
2022/12/07 00:48:57;;;;;;;9.20;1.25;;;1.90;1.00;;;;;;5073051;28;21543;-69
2022/12/07 00:51:25;;;;;;;1.33;0.80;;;2.00;1.00;;;;;;5084124;28;20495;-70
2022/12/07 00:53:52;;;;;;;2.00;1.48;;;2.00;1.00;;;;;;5091074;28;20430;-69
2022/12/07 00:56:20;;;;;;;1.40;1.30;;;2.00;99.90;;;;;;5089214;28;20434;-70
2022/12/07 00:58:59;;;;;;;1.70;1.60;;;2.00;99.90;;;;;;5079842;28;20422;-69
2022/12/07 01:01:28;;;;;;;1.90;1.40;;;1.90;99.90;;;;;;5081141;28;20827;-69
2022/12/07 01:03:55;;;;;;;1.20;1.10;;;1.90;99.90;;;;;;5085800;28;20434;-70
2022/12/07 01:06:24;;;;;;;3.30;1.13;;;1.90;99.90;;;;;;5087110;28;20430;-70
2022/12/07 01:08:51;;;;;;;1.90;1.10;;;1.80;99.90;;;;;;5073225;28;20433;-74
2022/12/07 01:11:20;;;;;;;1.30;1.20;;;1.80;99.90;;;;;;5084709;28;20951;-69
2022/12/07 01:13:50;;;;;;;1.70;1.20;;;1.80;99.90;;;;;;5078142;28;20449;-69
2022/12/07 01:16:18;;;;;;;1.58;1.48;;;1.80;99.90;;;;;;5066001;28;20449;-70
2022/12/07 01:18:50;;;;;;;1.23;1.13;;;1.70;99.90;;;;;;5082718;28;20441;-70
2022/12/07 01:21:20;;;;;;;1.05;1.05;;;1.70;31.20;;;;;;5086213;28;22628;-69
2022/12/07 01:23:51;;;;;;;1.00;1.00;;;1.50;53.30;;;;;;5088317;28;20429;-69
2022/12/07 01:26:22;;;;;;;1.50;1.40;;;1.50;98.70;;;;;;5087942;28;20425;-69
2022/12/07 01:28:50;;;;;;;1.33;1.33;;;1.50;99.90;;;;;;5084834;28;20436;-69
2022/12/07 01:31:19;;;;;;;0.85;0.82;;;1.50;99.90;;;;;;5076425;28;20513;-69
2022/12/07 01:33:48;;;;;;;1.40;1.38;;;1.50;1.00;;;;;;5088775;28;20429;-69
2022/12/07 01:36:21;;;;;;;1.17;0.77;;;1.50;1.00;;;;;;5086943;28;20418;-69
2022/12/07 01:38:51;;;;;;;1.20;1.20;;;1.50;1.00;;;;;;5089565;28;20428;-69
2022/12/07 01:41:19;;;;;;;1.50;1.05;;;1.50;1.00;;;;;;5081803;28;20431;-69
2022/12/07 01:44:23;;;;;;;0.95;0.95;;;1.50;1.00;;;;;;5083680;28;20436;-69
2022/12/07 01:46:55;;;;;;;0.47;0.47;;;1.50;9.50;;;;;;5075855;28;20950;-69
2022/12/07 01:49:31;;;;;;;0.82;0.73;;;1.60;99.90;;;;;;5068354;28;20948;-69
2022/12/07 01:52:23;;;;;;;1.50;1.30;;;1.70;99.90;;;;;;5079778;28;20420;-69
2022/12/07 01:54:57;;;;;;;1.35;0.90;;;1.70;99.90;;;;;;5081267;28;20445;-69
2022/12/07 01:57:24;;;;;;;0.93;0.90;;;1.80;99.90;;;;;;5071450;28;20429;-70
2022/12/07 01:59:52;;;;;;;1.50;0.90;;;1.80;99.90;;;;;;5081130;28;20479;-70
2022/12/07 02:02:43;;;;;;;0.60;0.55;;;1.90;99.90;;;;;;5074009;28;20458;-69
2022/12/07 02:05:11;;;;;;;1.00;1.00;;;1.90;4.00;;;;;;5088222;28;20449;-69
2022/12/07 02:07:38;;;;;;;1.40;1.30;;;1.90;1.00;;;;;;5080854;28;20425;-70
2022/12/07 02:10:17;;;;;;;0.88;0.88;;;2.00;1.00;;;;;;5081925;28;20479;-69
2022/12/07 02:12:50;;;;;;;2.50;1.35;;;1.90;99.90;;;;;;5070649;28;20818;-69
2022/12/07 02:15:20;;;;;;;1.15;0.95;;;1.90;99.90;;;;;;5083585;28;20429;-69
2022/12/07 02:18:04;;;;;;;1.10;1.00;;;1.90;99.90;;;;;;5084959;28;20984;-69
2022/12/07 02:20:35;;;;;;;1.38;0.85;;;1.90;99.90;;;;;;5077001;28;20426;-69
2022/12/07 02:23:36;;;;;;;1.15;1.15;;;2.00;99.90;;;;;;5081617;28;20433;-70
2022/12/07 02:26:21;;;;;;;0.60;0.60;;;2.00;99.90;;;;;;5082822;28;20456;-69
2022/12/07 02:29:15;;;;;;;0.80;0.80;;;2.10;99.90;;;;;;5083807;28;20448;-70
2022/12/07 02:32:01;;;;;;;3.33;1.38;;;2.10;64.90;;;;;;5084131;28;20425;-70
2022/12/07 02:34:45;;;;;;;1.27;1.15;;;2.20;1.00;;;;;;5080153;28;20451;-69
2022/12/07 02:37:24;;;;;;;1.00;0.90;;;2.20;1.00;;;;;;5074037;28;20439;-70
2022/12/07 02:40:00;;;;;;;1.55;1.45;;;2.20;1.00;;;;;;5082764;28;20455;-70
2022/12/07 02:42:40;;;;;;;0.98;0.90;;;2.20;1.00;;;;;;5081233;28;20959;-69
2022/12/07 02:45:10;;;;;;;1.27;1.10;;;2.30;1.00;;;;;;5085174;28;20519;-69
2022/12/07 02:47:38;;;;;;;1.15;0.90;;;2.30;99.90;;;;;;5078459;28;20479;-69
2022/12/07 02:50:06;;;;;;;0.73;0.63;;;2.30;99.90;;;;;;5070186;28;20435;-69
2022/12/07 02:52:36;;;;;;;1.83;0.88;;;2.30;99.90;;;;;;5084721;28;20983;-69
2022/12/07 02:55:04;;;;;;;0.50;0.50;;;2.40;99.90;;;;;;5085277;28;20426;-69
2022/12/07 02:57:45;;;;;;;1.30;1.25;;;2.40;99.90;;;;;;5088317;28;20779;-69
2022/12/07 03:00:17;;;;;;;2.80;1.10;;;2.40;99.90;;;;;;5078762;28;20441;-69
2022/12/07 03:03:06;;;;;;;1.40;1.17;;;2.40;99.90;;;;;;5084523;28;20534;-69
2022/12/07 03:05:39;;;;;;;1.48;1.38;;;2.40;99.90;;;;;;5086009;28;20832;-69
2022/12/07 03:08:36;;;;;;;0.93;0.93;;;2.50;99.90;;;;;;5081183;28;20427;-69
2022/12/07 03:11:42;;;;;;;0.80;0.70;;;2.40;99.90;;;;;;5089986;28;20425;-69
2022/12/07 03:14:20;;;;;;;0.90;0.90;;;2.40;99.90;;;;;;5057447;28;20506;-69
2022/12/07 03:17:01;;;;;;;1.00;0.90;;;2.50;99.90;;;;;;5066290;28;20427;-69
2022/12/07 03:19:32;;;;;;;0.40;0.40;;;2.50;99.90;;;;;;5063691;28;20514;-69
2022/12/07 03:22:11;;;;;;;1.17;0.82;;;2.50;99.90;;;;;;5068779;28;20435;-69
2022/12/07 03:24:46;;;;;;;0.70;0.70;;;2.50;99.90;;;;;;5068323;28;20516;-69
2022/12/07 03:27:19;;;;;;;0.77;0.77;;;2.60;99.90;;;;;;5072468;28;20423;-69
2022/12/07 03:29:54;;;;;;;0.90;0.90;;;2.60;99.90;;;;;;5067741;28;20431;-69
2022/12/07 03:32:28;;;;;;;2.00;0.77;;;2.50;99.90;;;;;;5060485;28;20512;-69
2022/12/07 03:35:00;;;;;;;5.13;1.05;;;2.50;99.90;;;;;;5066261;28;20437;-69
2022/12/07 03:37:36;;;;;;;0.60;0.60;;;2.50;99.90;;;;;;5046010;28;20919;-69
2022/12/07 03:40:28;;;;;;;4.50;1.20;;;2.50;99.90;;;;;;5067338;28;20431;-69
2022/12/07 03:42:55;;;;;;;2.42;1.73;;;2.50;99.90;;;;;;5059635;28;20438;-70
2022/12/07 03:45:32;;;;;;;1.58;1.05;;;2.50;99.90;;;;;;5048672;28;20437;-69
2022/12/07 03:48:24;;;;;;;1.13;1.13;;;2.50;99.90;;;;;;5044758;28;20423;-69
2022/12/07 03:51:04;;;;;;;0.60;0.60;;;2.60;99.90;;;;;;5084292;28;20425;-69
2022/12/07 03:54:12;;;;;;;0.70;0.70;;;2.60;99.90;;;;;;5075635;28;20507;-69
2022/12/07 03:56:40;;;;;;;4.10;0.93;;;2.60;99.90;;;;;;5080270;28;20442;-69
2022/12/07 03:59:07;;;;;;;0.93;0.93;;;2.60;99.90;;;;;;5088603;28;20429;-69
2022/12/07 04:01:34;;;;;;;0.50;0.50;;;2.60;99.90;;;;;;5081819;28;20458;-69
2022/12/07 04:04:00;;;;;;;0.82;0.82;;;2.60;99.90;;;;;;5081212;28;20431;-69
2022/12/07 04:06:27;;;;;;;1.40;1.00;;;2.60;99.90;;;;;;5084087;28;20418;-69
2022/12/07 04:08:54;;;;;;;0.75;0.75;;;2.60;99.90;;;;;;5087788;28;20428;-69
2022/12/07 04:11:21;;;;;;;0.68;0.68;;;2.70;99.90;;;;;;5077577;28;20431;-69
2022/12/07 04:16:33;;;;;;;1.02;0.93;;;2.70;99.90;;;;;;5073069;28;22325;-69
2022/12/07 04:19:06;;;;;;;1.30;0.70;;;2.70;99.90;;;;;;5085508;28;20927;-69
2022/12/07 04:21:33;;;;;;;0.93;0.93;;;2.70;99.90;;;;;;5087706;28;20527;-69
2022/12/07 04:24:00;;;;;;;1.00;0.90;;;2.70;99.90;;;;;;5081000;28;20431;-69
2022/12/07 04:26:26;;;;;;;0.80;0.80;;;2.70;99.90;;;;;;5082471;28;20421;-69
2022/12/07 04:28:59;;;;;;;1.13;1.13;;;2.70;99.90;;;;;;5083459;28;22724;-69
2022/12/07 04:31:33;;;;;;;2.53;0.95;;;2.80;99.90;;;;;;5081102;28;20525;-69
2022/12/07 04:34:00;;;;;;;1.07;1.07;;;2.80;99.90;;;;;;5077631;28;20450;-69
2022/12/07 04:36:26;;;;;;;0.75;0.75;;;2.90;99.90;;;;;;5079852;28;20951;-69
2022/12/07 04:38:56;;;;;;;0.68;0.68;;;2.90;99.90;;;;;;5080540;28;20908;-69
2022/12/07 04:41:27;;;;;;;0.73;0.52;;;2.90;99.90;;;;;;5083557;28;20441;-69
2022/12/07 04:44:03;;;;;;;1.10;1.00;;;2.90;99.90;;;;;;5080230;28;20929;-69
2022/12/07 04:46:31;;;;;;;1.00;0.93;;;2.90;99.90;;;;;;5086304;28;20920;-69
2022/12/07 04:49:00;;;;;;;1.50;0.85;;;2.90;99.90;;;;;;5084950;28;20432;-68
2022/12/07 04:51:30;;;;;;;0.73;0.47;;;2.90;99.90;;;;;;5088388;28;20467;-69
2022/12/07 04:53:57;;;;;;;1.17;1.07;;;2.90;99.90;;;;;;5084350;28;20436;-70
2022/12/07 04:56:24;;;;;;;1.30;0.97;;;2.90;99.90;;;;;;5086090;28;20484;-70
2022/12/07 04:58:53;;;;;;;1.00;1.00;;;3.00;99.90;;;;;;5072286;28;20928;-68
2022/12/07 05:01:25;;;;;;;1.13;0.63;;;3.00;99.90;;;;;;5082013;28;20437;-69
2022/12/07 05:03:52;;;;;;;1.08;0.90;;;3.00;99.90;;;;;;5083535;28;20499;-69
2022/12/07 05:06:19;;;;;;;1.42;0.93;;;3.10;99.90;;;;;;5077455;28;20426;-68
2022/12/07 05:08:46;;;;;;;0.50;0.50;;;3.10;99.90;;;;;;5074546;28;20441;-68
2022/12/07 05:11:37;;;;;;;1.40;1.23;;;3.10;99.90;;;;;;5086099;28;20437;-69
2022/12/07 05:14:02;;;;;;;2.90;0.70;;;3.10;99.90;;;;;;5080349;28;20452;-69
2022/12/07 05:16:29;;;;;;;1.63;0.95;;;3.10;99.90;;;;;;5077152;28;20489;-68
2022/12/07 05:18:59;;;;;;;1.80;1.00;;;3.20;99.90;;;;;;5072436;28;20439;-69
2022/12/07 05:21:26;;;;;;;0.73;0.73;;;3.20;99.90;;;;;;5084919;28;20429;-69
2022/12/07 05:23:53;;;;;;;0.80;0.80;;;3.20;99.90;;;;;;5085142;28;20491;-68
2022/12/07 05:26:19;;;;;;;1.17;1.13;;;3.20;99.90;;;;;;5077265;28;20418;-68
2022/12/07 05:28:53;;;;;;;0.70;0.70;;;3.20;99.90;;;;;;5084561;28;20788;-68
2022/12/07 05:31:21;;;;;;;2.22;0.95;;;3.20;99.90;;;;;;5081890;28;20430;-68
2022/12/07 05:33:48;;;;;;;1.58;1.42;;;3.20;99.90;;;;;;5084102;28;20426;-68
2022/12/07 05:36:15;;;;;;;1.40;1.10;;;3.20;99.90;;;;;;5085821;28;21017;-68
2022/12/07 05:38:42;;;;;;;1.40;1.23;;;3.20;99.90;;;;;;5088080;28;20421;-68
2022/12/07 05:44:01;;;;;;;1.08;0.98;;;3.20;99.90;;;;;;5085328;28;20425;-68
2022/12/07 05:46:27;;;;;;;1.65;1.20;;;3.20;99.90;;;;;;5086388;28;21093;-68
2022/12/07 05:48:54;;;;;;;1.75;1.50;;;3.30;99.90;;;;;;5085689;28;20450;-68
2022/12/07 05:51:21;;;;;;;0.98;0.95;;;3.30;99.90;;;;;;5085419;28;20561;-69
2022/12/07 05:53:48;;;;;;;0.95;0.95;;;3.30;99.90;;;;;;5080767;28;20422;-69
2022/12/07 05:56:15;;;;;;;1.43;1.33;;;3.30;99.90;;;;;;5073073;28;20476;-68
2022/12/07 06:01:27;;;;;;;0.70;0.70;;;3.30;99.90;;;;;;5084313;28;20453;-70
2022/12/07 06:03:54;;;;;;;0.93;0.93;;;3.30;99.90;;;;;;5090071;28;20427;-70
2022/12/07 06:06:21;;;;;;;1.40;1.00;;;3.30;99.90;;;;;;5085790;28;20447;-70
2022/12/07 06:08:48;;;;;;;0.70;0.70;;;3.30;99.90;;;;;;5068568;28;20522;-70
2022/12/07 06:14:01;;;;;;;2.20;0.93;;;3.30;99.90;;;;;;5083307;28;20462;-68
2022/12/07 06:16:28;;;;;;;0.85;0.85;;;3.30;99.90;;;;;;5083282;28;20508;-68
2022/12/07 06:18:54;;;;;;;1.63;1.45;;;3.30;99.90;;;;;;5087355;28;20430;-68
2022/12/07 06:21:21;;;;;;;1.52;1.40;;;3.30;99.90;;;;;;5078306;28;20454;-71
2022/12/07 06:23:48;;;;;;;1.20;0.90;;;3.30;99.90;;;;;;5073143;28;20469;-68
2022/12/07 06:26:15;;;;;;;1.00;1.00;;;3.30;99.90;;;;;;5078140;28;20965;-68
2022/12/07 06:28:42;;;;;;;2.75;1.55;;;3.30;99.90;;;;;;5079809;28;20431;-68
2022/12/07 06:31:09;;;;;;;0.97;0.97;;;3.30;99.90;;;;;;5083817;28;20421;-68
2022/12/07 06:33:40;;;;;;;1.17;1.08;;;3.30;99.90;;;;;;5087120;28;20897;-68
2022/12/07 06:36:08;;;;;;;1.47;1.37;;;3.30;99.90;;;;;;5085141;28;20426;-69
2022/12/07 06:38:34;;;;;;;0.88;0.88;;;3.30;99.90;;;;;;5083966;28;20457;-69
2022/12/07 06:41:02;;;;;;;1.55;1.00;;;3.20;99.90;;;;;;5088092;28;20492;-68
2022/12/07 06:43:29;;;;;;;2.20;1.17;;;3.20;99.90;;;;;;5083640;28;20437;-69
2022/12/07 06:45:56;;;;;;;0.83;0.83;;;3.20;99.90;;;;;;5073526;28;20442;-69
2022/12/07 06:48:25;;;;;;;1.05;0.95;;;3.10;99.90;;;;;;5070684;28;20446;-69
2022/12/07 06:50:54;;;;;;;1.15;1.15;;;3.10;99.90;;;;;;5072826;28;20442;-68
2022/12/07 06:53:22;;;;;;;2.83;1.20;;;3.10;99.90;;;;;;5084331;28;20425;-69
2022/12/07 06:55:49;;;;;;;1.23;1.13;;;3.10;99.90;;;;;;5084105;28;20435;-69
2022/12/07 06:58:16;;;;;;;1.13;1.00;;;3.10;99.90;;;;;;5069747;28;20812;-69
2022/12/07 07:00:44;;;;;;;1.38;1.27;;;3.10;99.90;;;;;;5078919;28;20437;-69
2022/12/07 07:03:11;;;;;;;1.73;1.58;;;3.00;99.90;;;;;;5078094;28;20430;-69
2022/12/07 07:05:37;;;;;;;1.52;1.27;;;3.00;99.90;;;;;;5071842;28;20934;-69
2022/12/07 07:08:04;;;;;;;4.43;1.33;;;3.00;99.90;;;;;;5087065;28;20421;-69
2022/12/07 07:10:47;;;;;;;1.20;1.10;;;3.00;99.90;;;;;;5074618;28;21005;-69
2022/12/07 07:13:16;;;;;;;1.30;1.15;;;2.90;99.90;;;;;;5074565;28;20433;-69
2022/12/07 07:15:44;;;;;;;2.65;1.38;;;2.90;99.90;;;;;;5076042;28;20431;-69
2022/12/07 07:18:10;;;;;;;1.20;1.13;;;2.90;99.90;;;;;;5078051;28;20520;-68
2022/12/07 07:20:37;;;;;;;0.95;0.88;;;2.90;99.90;;;;;;5081136;28;20437;-68
2022/12/07 07:23:04;;;;;;;1.92;1.58;;;2.90;99.90;;;;;;5065263;28;20425;-68
2022/12/07 07:25:31;;;;;;;1.77;1.60;;;2.80;99.90;;;;;;5076574;28;20434;-68
2022/12/07 07:27:59;;;;;;;3.10;1.70;;;2.80;99.90;;;;;;5079878;28;20959;-72
2022/12/07 07:30:26;;;;;;;2.97;1.52;;;2.80;99.90;;;;;;5083194;28;20433;-68
2022/12/07 07:33:01;;;;;;;1.00;0.90;;;2.80;99.90;;;;;;5075975;28;20514;-68
2022/12/07 07:35:29;;;;;;;2.13;1.40;;;2.80;99.90;;;;;;5074725;28;20514;-69
2022/12/07 07:37:56;;;;;;;1.63;1.52;;;2.80;99.90;;;;;;5075807;28;20551;-69
2022/12/07 07:40:23;;;;;;;1.40;1.30;;;2.90;99.90;;;;;;5084682;28;20496;-69
2022/12/07 07:42:54;;;;;;;1.45;1.35;;;2.90;99.90;;;;;;5079299;28;20435;-70
2022/12/07 07:45:22;;;;;;;1.60;1.33;;;3.00;99.90;;;;;;5075412;28;20445;-69
2022/12/07 07:47:52;;;;;;;2.92;1.48;;;3.00;99.90;;;;;;5084666;28;20427;-69
2022/12/07 07:50:19;;;;;;;1.80;1.27;;;3.10;99.90;;;;;;5090986;28;20430;-70
2022/12/07 07:52:49;;;;;;;3.85;1.48;;;3.20;99.90;;;;;;5090945;28;20422;-69
2022/12/07 07:55:16;;;;;;;1.88;1.58;;;3.20;99.90;;;;;;5084729;28;20433;-70
2022/12/07 07:57:43;;;;;;;2.60;1.85;;;3.30;99.90;;;;;;5085242;28;20835;-69
2022/12/07 08:00:18;;;;;;;1.25;1.17;;;3.30;99.90;;;;;;5079475;28;20421;-69
2022/12/07 08:02:45;;;;;;;1.80;0.80;;;3.40;99.90;;;;;;5101163;28;20430;-71
2022/12/07 08:05:13;;;;;;;2.17;1.15;;;3.40;99.90;;;;;;5082352;28;20438;-71
2022/12/07 08:07:40;;;;;;;1.35;1.25;;;3.50;99.90;;;;;;5087292;28;20987;-69
2022/12/07 08:10:10;;;;;;;1.15;1.08;;;3.50;99.90;;;;;;5080649;28;20602;-68
2022/12/07 08:15:28;;;;;;;3.00;1.57;;;3.70;99.90;;;;;;5088880;28;20432;-69
2022/12/07 08:17:55;;;;;;;6.32;1.45;;;3.80;99.90;;;;;;5091018;28;20923;-69
2022/12/07 08:20:22;;;;;;;1.77;1.63;;;3.90;99.90;;;;;;5085614;28;20420;-69
2022/12/07 08:22:49;;;;;;;1.52;1.42;;;3.90;99.90;;;;;;5095156;28;20431;-69
2022/12/07 08:25:16;;;;;;;1.65;1.55;;;3.90;99.90;;;;;;5066134;28;21384;-69
2022/12/07 08:27:43;;;;;;;2.15;1.50;;;3.90;99.90;;;;;;5071467;28;20437;-69
2022/12/07 08:30:10;;;;;;;3.10;1.75;;;3.80;99.90;;;;;;5079923;28;20431;-70
2022/12/07 08:32:36;;;;;;;2.10;1.23;;;3.70;99.90;;;;;;5080106;28;20422;-68
2022/12/07 08:35:03;;;;;;;2.13;1.13;;;3.60;99.90;;;;;;5082106;28;20437;-69
2022/12/07 08:37:32;;;;;;;1.40;1.30;;;3.50;99.90;;;;;;5072144;28;20988;-70
2022/12/07 08:39:59;;;;;;;1.80;1.48;;;3.50;99.90;;;;;;5077439;28;20423;-69
2022/12/07 08:42:55;;;;;;;1.92;1.55;;;3.40;99.90;;;;;;5075749;28;20430;-70
2022/12/07 08:45:22;;;;;;;1.80;1.20;;;3.50;99.90;;;;;;5079488;28;20609;-69
2022/12/07 08:47:56;;;;;;;1.73;1.58;;;3.60;99.90;;;;;;5076536;28;20509;-69
2022/12/07 08:50:24;;;;;;;2.50;1.98;;;3.60;99.90;;;;;;5084343;28;20426;-69
2022/12/07 08:52:54;;;;;;;1.30;1.17;;;3.70;99.90;;;;;;5083953;28;20432;-69
2022/12/07 08:55:21;;;;;;;1.23;1.23;;;3.80;99.90;;;;;;5082674;28;20430;-69
2022/12/07 08:57:49;;;;;;;3.33;2.08;;;3.80;99.90;;;;;;5079992;28;20797;-70
2022/12/07 09:00:19;;;;;;;0.98;0.98;;;3.80;99.90;;;;;;5081951;28;20430;-69
2022/12/07 09:02:46;;;;;;;2.08;1.70;;;3.90;99.90;;;;;;5066852;28;20446;-69
2022/12/07 09:05:14;;;;;;;1.30;1.20;;;4.10;99.90;;;;;;5069106;28;20431;-69
2022/12/07 09:07:49;;;;;;;1.88;1.52;;;4.70;99.90;;;;;;5079720;28;20433;-70
2022/12/07 09:10:16;;;;;;;1.57;1.47;;;5.20;99.90;;;;;;5096236;28;20461;-69
2022/12/07 09:12:45;;;;;;;1.35;1.25;;;5.60;99.90;;;;;;5074911;28;20431;-69
2022/12/07 09:15:12;;;;;;;1.33;1.23;;;5.90;99.90;;;;;;5072697;28;20488;-69
2022/12/07 09:17:38;;;;;;;1.85;1.23;;;5.90;99.90;;;;;;5063883;28;20919;-70
2022/12/07 09:20:06;;;;;;;5.72;1.80;;;5.70;99.90;;;;;;5085820;28;20426;-68
2022/12/07 09:22:33;;;;;;;1.25;1.15;;;5.40;99.90;;;;;;5084736;28;20538;-70
2022/12/07 09:25:01;;;;;;;1.90;1.45;;;5.20;99.90;;;;;;5075967;28;20479;-69
2022/12/07 09:27:28;;;;;;;2.85;1.60;;;5.00;99.90;;;;;;5084116;28;20509;-70
2022/12/07 09:29:55;;;;;;;2.00;1.70;;;4.70;99.90;;;;;;5065443;28;20451;-69
2022/12/07 09:32:22;;;;;;;1.27;1.13;;;4.70;99.90;;;;;;5083671;28;20427;-69
2022/12/07 09:34:49;;;;;;;1.42;1.33;;;4.50;99.90;;;;;;5076439;28;21101;-70
2022/12/07 09:37:19;;;;;;;1.67;1.58;;;4.50;99.90;;;;;;5076109;28;21203;-69
2022/12/07 09:39:46;;;;;;;1.80;1.53;;;4.50;99.90;;;;;;5070562;28;20514;-69
2022/12/07 09:42:37;;;;;;;1.60;1.50;;;4.50;99.90;;;;;;5082026;28;20475;-70
2022/12/07 09:45:07;;;;;;;2.50;1.48;;;4.50;99.90;;;;;;5083277;28;20430;-71
2022/12/07 09:47:34;;;;;;;1.70;1.60;;;4.50;99.90;;;;;;5084015;28;20981;-69
2022/12/07 09:50:06;;;;;;;2.35;1.23;;;4.60;99.90;;;;;;5086389;28;20485;-69
2022/12/07 09:52:33;;;;;;;2.08;1.45;;;4.60;99.90;;;;;;5087146;28;20433;-68
2022/12/07 09:55:14;;;;;;;1.38;1.27;;;4.60;99.90;;;;;;5090160;28;20487;-69
2022/12/07 09:57:41;;;;;;;2.00;1.58;;;4.70;99.90;;;;;;5080330;28;20474;-69
2022/12/07 10:00:17;;;;;;;2.08;1.35;;;4.80;99.90;;;;;;5088738;28;20422;-69
2022/12/07 10:02:57;;;;;;;1.10;1.10;;;4.90;99.90;;;;;;5069546;28;20484;-69
2022/12/07 10:05:42;;;;;;;3.37;1.77;;;4.90;99.90;;;;;;5083635;28;20426;-68
2022/12/07 10:08:12;;;;;;;1.10;1.10;;;5.00;99.90;;;;;;5087188;28;20432;-69
2022/12/07 10:10:39;;;;;;;1.47;1.37;;;5.10;99.90;;;;;;5084340;28;20545;-69
2022/12/07 10:13:14;;;;;;;1.58;1.40;;;5.10;99.90;;;;;;5077505;28;20426;-69
2022/12/07 10:15:47;;;;;;;2.03;1.60;;;5.20;99.90;;;;;;5071121;28;20425;-69
2022/12/07 10:18:30;;;;;;;2.25;1.60;;;5.40;99.90;;;;;;5073723;28;20437;-69
2022/12/07 10:21:17;;;;;;;2.10;1.30;;;5.60;99.90;;;;;;5074811;28;20431;-70
2022/12/07 10:24:11;;;;;;;1.33;1.23;;;6.10;99.90;;;;;;5086537;28;20432;-69
2022/12/07 10:26:46;;;;;;;2.03;1.57;;;6.20;99.90;;;;;;5074406;28;20437;-69
2022/12/07 10:29:18;;;;;;;1.75;1.45;;;6.10;99.90;;;;;;5089965;28;20430;-69
2022/12/07 10:31:55;;;;;;;2.25;1.00;;;5.90;99.90;;;;;;5076013;28;20429;-69
2022/12/07 10:34:30;;;;;;;1.80;1.60;;;5.70;99.90;;;;;;5073981;28;20427;-70
2022/12/07 10:37:14;;;;;;;1.08;1.08;;;5.50;99.90;;;;;;5068721;28;20488;-69
2022/12/07 10:39:47;;;;;;;2.83;1.40;;;5.30;99.90;;;;;;5067673;28;20438;-69
2022/12/07 10:42:19;;;;;;;1.20;1.10;;;5.20;99.90;;;;;;5069536;28;20438;-70
2022/12/07 10:44:48;;;;;;;1.80;1.17;;;5.10;99.90;;;;;;5077820;28;20935;-69
2022/12/07 10:47:14;;;;;;;1.20;1.10;;;5.20;99.90;;;;;;5081093;28;20524;-69
2022/12/07 10:49:44;;;;;;;0.85;0.85;;;5.20;99.90;;;;;;5088926;28;20429;-69
2022/12/07 10:52:41;;;;;;;1.10;1.10;;;5.30;99.90;;;;;;5074537;28;20438;-69
2022/12/07 10:55:13;;;;;;;0.87;0.87;;;5.50;99.90;;;;;;5046750;28;20781;-69
2022/12/07 10:58:02;;;;;;;1.45;1.23;;;5.70;99.90;;;;;;5077616;28;20430;-69
2022/12/07 11:00:45;;;;;;;1.05;1.00;;;5.90;99.90;;;;;;5073790;28;20435;-69
2022/12/07 11:03:31;;;;;;;3.10;1.20;;;6.10;99.90;;;;;;5075819;28;20430;-69
2022/12/07 11:06:15;;;;;;;2.10;1.10;;;7.00;99.90;;;;;;5075662;28;20443;-68
2022/12/07 11:09:01;;;;;;;1.25;1.15;;;8.30;99.90;;;;;;5069147;28;20927;-69
2022/12/07 11:11:38;;;;;;;2.67;1.17;;;9.70;99.90;;;;;;5068437;28;20459;-69
2022/12/07 11:14:15;;;;;;;0.97;0.90;;;10.70;99.90;;;;;;5068914;28;20434;-69
2022/12/07 11:16:45;;;;;;;1.63;0.50;;;11.30;99.90;;;;;;5074667;28;20427;-69
2022/12/07 11:19:33;;;;;;;0.65;0.65;;;11.50;99.90;;;;;;5068504;28;20427;-69
2022/12/07 11:22:03;;;;;;;1.13;0.60;;;12.00;99.90;;;;;;5088708;28;20467;-69
2022/12/07 11:24:47;;;;;;;1.40;0.90;;;12.00;99.90;;;;;;5092653;28;20804;-69
2022/12/07 11:27:39;;;;;;;2.20;0.88;;;11.70;99.90;;;;;;5090044;28;20431;-69
2022/12/07 11:30:26;;;;;;;0.52;0.52;;;10.80;99.90;;;;;;5075189;28;20440;-69
2022/12/07 11:33:02;;;;;;;1.20;0.70;;;9.70;99.90;;;;;;5082032;28;20949;-69
2022/12/07 11:35:56;;;;;;;0.85;0.50;;;8.80;99.90;;;;;;5071949;28;20426;-68
2022/12/07 11:38:42;;;;;;;1.13;0.63;;;8.20;99.90;;;;;;5072687;28;20435;-69
2022/12/07 11:41:12;;;;;;;1.90;0.60;;;7.80;99.90;;;;;;5072666;28;20419;-69
2022/12/07 11:44:02;;;;;;;0.80;0.55;;;7.50;99.90;;;;;;5072143;28;20427;-69
2022/12/07 11:46:45;;;;;;;0.50;0.50;;;7.40;99.90;;;;;;5073594;28;20433;-68
2022/12/07 11:49:38;;;;;;;0.40;0.40;;;7.40;99.90;;;;;;5073356;28;20435;-69
2022/12/07 11:52:09;;;;;;;1.27;0.70;;;7.50;99.90;;;;;;5090271;28;20811;-69
2022/12/07 11:54:41;;;;;;;0.40;0.40;;;7.70;99.90;;;;;;5077375;28;20428;-69
2022/12/07 11:57:17;;;;;;;0.30;0.30;;;7.70;99.90;;;;;;5089895;28;20429;-69
2022/12/07 11:59:51;;;;;;;0.40;0.40;;;7.80;99.90;;;;;;5089151;28;20469;-68
2022/12/07 12:02:32;;;;;;;0.30;0.30;;;7.70;99.90;;;;;;5085732;28;20430;-68
2022/12/07 12:05:21;;;;;;;0.60;0.50;;;7.70;99.90;;;;;;5088180;28;20431;-68
2022/12/07 12:08:01;;;;;;;0.25;0.25;;;7.70;99.90;;;;;;5071490;28;20431;-68
2022/12/07 12:11:25;;;;;;;0.60;0.60;;;8.00;99.90;;;;;;5078872;28;20417;-70
2022/12/07 12:13:52;;;;;;;0.40;0.40;;;8.40;99.90;;;;;;5080895;28;20430;-69
2022/12/07 12:17:07;;;;;;;0.40;0.40;;;8.40;99.90;;;;;;5083771;28;20426;-68
2022/12/07 12:19:55;;;;;;;0.50;0.22;;;8.10;99.90;;;;;;5092501;28;20462;-69
2022/12/07 12:22:28;;;;;;;0.40;0.40;;;7.70;99.90;;;;;;5092461;28;20459;-70
2022/12/07 12:24:56;;;;;;;0.88;0.40;;;7.50;99.90;;;;;;5081203;28;20975;-69
2022/12/07 12:27:30;;;;;;;0.30;0.30;;;7.40;99.90;;;;;;5080853;28;20498;-69
2022/12/07 12:30:03;;;;;;;0.30;0.30;;;7.30;99.90;;;;;;5083801;28;20477;-69
2022/12/07 12:32:44;;;;;;;0.22;0.22;;;7.40;99.90;;;;;;5087529;28;20429;-69
2022/12/07 12:35:30;;;;;;;0.55;0.55;;;7.40;99.90;;;;;;5080419;28;20435;-69
2022/12/07 12:38:24;;;;;;;0.22;0.22;;;7.40;99.90;;;;;;5078444;28;20440;-69
2022/12/07 12:40:51;;;;;;;0.50;0.30;;;7.30;99.90;;;;;;5080589;28;20431;-69
2022/12/07 12:43:43;;;;;;;0.40;0.40;;;7.00;99.90;;;;;;5088264;28;20434;-69
2022/12/07 12:46:28;;;;;;;0.20;0.20;;;6.70;99.90;;;;;;5071397;28;20776;-69
2022/12/07 12:49:20;;;;;;;0.40;0.40;;;6.50;99.90;;;;;;5078421;28;20505;-69
2022/12/07 12:51:48;;;;;;;0.25;0.25;;;6.20;99.90;;;;;;5075331;28;20432;-69
2022/12/07 12:54:18;;;;;;;0.40;0.40;;;6.10;99.90;;;;;;5079366;28;20483;-69
2022/12/07 12:57:23;;;;;;;0.20;0.20;;;6.00;99.90;;;;;;5082288;28;20469;-69
2022/12/07 12:59:53;;;;;;;0.28;0.28;;;6.40;99.90;;;;;;5077259;28;20430;-69
2022/12/07 13:02:39;;;;;;;0.30;0.30;;;6.90;99.90;;;;;;5086629;28;20508;-69
2022/12/07 13:05:12;;;;;;;0.20;0.20;;;7.40;99.90;;;;;;5076562;28;20434;-69
2022/12/07 13:07:48;;;;;;;0.30;0.30;;;7.80;99.90;;;;;;5084847;28;20425;-69
2022/12/07 13:10:28;;;;;;;0.20;0.20;;;8.10;99.90;;;;;;5083844;28;20514;-68
2022/12/07 13:13:22;;;;;;;0.30;0.28;;;8.10;99.90;;;;;;5086526;28;20426;-69
2022/12/07 13:16:15;;;;;;;0.30;0.30;;;8.00;99.90;;;;;;5077217;28;20426;-70
2022/12/07 13:18:43;;;;;;;0.25;0.20;;;7.70;99.90;;;;;;5070609;28;20457;-68
2022/12/07 13:21:09;;;;;;;2.30;0.40;;;7.30;99.90;;;;;;5084235;28;20455;-69
2022/12/07 13:23:45;;;;;;;0.28;0.28;;;7.10;99.90;;;;;;5079334;28;21115;-68
2022/12/07 13:26:34;;;;;;;4.50;0.70;;;7.10;99.90;;;;;;5085790;28;20905;-70
2022/12/07 13:29:10;;;;;;;0.40;0.20;;;7.10;99.90;;;;;;5080957;28;20440;-69
2022/12/07 13:31:43;;;;;;;0.30;0.30;;;7.10;99.90;;;;;;5079094;28;20994;-68
2022/12/07 13:34:32;;;;;;;1.63;0.93;;;7.10;99.90;;;;;;5088898;28;20916;-68
2022/12/07 13:37:20;;;;;;;0.40;0.40;;;7.20;99.90;;;;;;5085362;28;20445;-69
2022/12/07 13:39:48;;;;;;;0.40;0.40;;;7.20;99.90;;;;;;5074049;28;20501;-68
2022/12/07 13:42:30;;;;;;;0.20;0.20;;;7.20;99.90;;;;;;5080111;28;20966;-68
2022/12/07 13:45:00;;;;;;;0.20;0.20;;;7.30;99.90;;;;;;5082622;28;20517;-69